createdAt,value
2018-11-21T00:04:02.102Z,5.30
2018-11-21T00:08:05.870Z,5.31
2018-11-21T00:12:09.502Z,5.31
2018-11-21T00:16:13.029Z,5.33
2018-11-21T00:20:16.737Z,5.37
2018-11-21T00:24:20.481Z,5.39
2018-11-21T00:28:24.303Z,5.35
2018-11-21T00:32:28.797Z,5.36
2018-11-21T00:36:32.570Z,5.36
2018-11-21T00:40:36.213Z,5.34
2018-11-21T00:44:39.845Z,5.36
2018-11-21T00:48:43.484Z,5.40
2018-11-21T00:52:47.123Z,5.42
2018-11-21T00:56:50.703Z,5.49
2018-11-21T01:00:54.329Z,5.53
2018-11-21T01:04:57.961Z,5.51
2018-11-21T01:09:01.668Z,5.54
2018-11-21T01:13:05.419Z,5.51
2018-11-21T01:17:09.022Z,5.55
2018-11-21T01:21:12.959Z,5.54
2018-11-21T01:25:16.685Z,5.46
2018-11-21T01:29:20.636Z,5.42
2018-11-21T01:33:24.388Z,5.37
2018-11-21T01:37:28.053Z,5.33
2018-11-21T01:41:31.918Z,5.36
2018-11-21T01:45:35.713Z,5.38
2018-11-21T01:49:39.655Z,5.41
2018-11-21T01:53:43.271Z,5.41
2018-11-21T01:57:46.884Z,5.42
2018-11-21T02:01:50.514Z,5.47
2018-11-21T02:05:54.110Z,5.46
2018-11-21T02:09:57.750Z,5.46
2018-11-21T02:14:01.338Z,5.47
2018-11-21T02:18:05.208Z,5.46
2018-11-21T02:22:08.974Z,5.46
2018-11-21T02:26:12.674Z,5.46
2018-11-21T02:30:16.318Z,5.44
2018-11-21T02:34:19.978Z,5.45
2018-11-21T02:38:23.571Z,5.42
2018-11-21T02:42:27.222Z,5.41
2018-11-21T02:46:30.836Z,5.40
2018-11-21T02:50:34.456Z,5.45
2018-11-21T02:54:38.056Z,5.49
2018-11-21T02:58:41.756Z,5.51
2018-11-21T03:02:45.411Z,5.51
2018-11-21T03:06:49.131Z,5.56
2018-11-21T03:10:52.776Z,5.57
2018-11-21T03:14:56.395Z,5.58
2018-11-21T03:19:00.854Z,5.59
2018-11-21T03:23:04.488Z,5.57
2018-11-21T03:27:08.161Z,5.56
2018-11-21T03:31:11.853Z,5.53
2018-11-21T03:35:15.476Z,5.54
2018-11-21T03:39:20.512Z,5.57
2018-11-21T03:43:24.219Z,5.58
2018-11-21T03:47:27.840Z,5.59
2018-11-21T03:51:31.467Z,5.61
2018-11-21T03:55:35.115Z,5.59
2018-11-21T03:59:38.737Z,5.57
2018-11-21T04:03:42.717Z,5.55
2018-11-21T04:07:46.387Z,5.51
2018-11-21T04:11:50.014Z,5.54
2018-11-21T04:15:53.645Z,5.56
2018-11-21T04:19:57.289Z,5.57
2018-11-21T04:24:00.943Z,5.55
2018-11-21T04:28:04.560Z,5.56
2018-11-21T04:32:08.190Z,5.56
2018-11-21T04:36:12.694Z,5.58
2018-11-21T04:40:16.276Z,5.58
2018-11-21T04:44:19.936Z,5.61
2018-11-21T04:48:23.528Z,5.64
2018-11-21T04:52:27.193Z,5.64
2018-11-21T04:56:30.787Z,5.65
2018-11-21T05:00:34.408Z,5.63
2018-11-21T05:04:38.084Z,5.65
2018-11-21T05:08:41.657Z,5.69
2018-11-21T05:12:45.321Z,5.71
2018-11-21T05:16:48.985Z,5.74
2018-11-21T05:20:52.619Z,5.73
2018-11-21T05:24:56.413Z,5.74
2018-11-21T05:29:00.108Z,5.73
2018-11-21T05:33:03.832Z,5.72
2018-11-21T05:37:07.449Z,5.77
2018-11-21T05:41:11.438Z,5.80
2018-11-21T05:45:15.228Z,5.82
2018-11-21T05:49:18.861Z,5.85
2018-11-21T05:53:23.799Z,5.88
2018-11-21T05:57:27.365Z,5.88
2018-11-21T06:01:31.357Z,5.81
2018-11-21T06:05:34.993Z,5.82
2018-11-21T06:09:38.846Z,5.82
2018-11-21T06:13:42.333Z,5.81
2018-11-21T06:17:48.325Z,5.77
2018-11-21T06:21:49.598Z,5.80
2018-11-21T06:25:53.411Z,5.84
2018-11-21T06:29:57.113Z,5.89
2018-11-21T06:34:00.743Z,5.91
2018-11-21T06:38:04.388Z,5.95
2018-11-21T06:42:08.041Z,5.95
2018-11-21T06:46:11.707Z,5.95
2018-11-21T06:50:15.514Z,5.96
2018-11-21T06:54:19.169Z,5.96
2018-11-21T06:58:22.807Z,5.93
2018-11-21T07:02:26.454Z,5.95
2018-11-21T07:06:30.064Z,5.97
2018-11-21T07:10:33.722Z,5.98
2018-11-21T07:14:37.307Z,5.98
2018-11-21T07:18:41.322Z,6.00
2018-11-21T07:22:44.937Z,6.01
2018-11-21T07:26:50.374Z,6.09
2018-11-21T07:30:53.907Z,6.13
2018-11-21T07:34:58.003Z,6.20
2018-11-21T07:39:02.483Z,6.22
2018-11-21T07:43:06.266Z,6.25
2018-11-21T07:47:09.928Z,6.24
2018-11-21T07:51:13.601Z,6.23
2018-11-21T07:55:17.218Z,6.23
2018-11-21T07:59:20.899Z,6.17
2018-11-21T08:03:25.734Z,6.22
2018-11-21T08:07:40.721Z,6.24
2018-11-21T08:12:21.695Z,6.32
2018-11-21T08:16:59.394Z,6.37
2018-11-21T08:21:21.989Z,6.41
2018-11-21T08:25:50.698Z,6.45
2018-11-21T08:29:54.365Z,6.46
2018-11-21T08:33:58.007Z,6.42
2018-11-21T08:38:01.637Z,6.38
2018-11-21T08:42:05.535Z,6.33
2018-11-21T08:46:10.281Z,6.31
2018-11-21T08:50:13.890Z,6.31
2018-11-21T08:54:17.565Z,6.35
2018-11-21T08:58:21.340Z,6.40
2018-11-21T09:02:25.072Z,6.43
2018-11-21T09:06:28.976Z,6.43
2018-11-21T09:14:36.218Z,6.48
2018-11-21T09:18:39.824Z,6.48
2018-11-21T09:22:43.421Z,6.50
2018-11-21T09:26:47.376Z,6.53
2018-11-21T09:30:51.020Z,6.54
2018-11-21T09:34:54.638Z,6.56
2018-11-21T09:38:58.262Z,6.55
2018-11-21T09:43:01.923Z,6.55
2018-11-21T09:47:05.535Z,6.56
2018-11-21T09:51:09.178Z,6.60
2018-11-21T09:55:13.005Z,6.62
2018-11-21T09:59:16.609Z,6.64
2018-11-21T10:03:22.400Z,6.65
2018-11-21T10:07:26.050Z,6.64
2018-11-21T10:11:30.451Z,6.67
2018-11-21T10:15:34.094Z,6.69
2018-11-21T10:19:37.711Z,6.72
2018-11-21T10:23:41.639Z,6.73
2018-11-21T10:27:45.885Z,6.72
2018-11-21T10:31:49.507Z,6.73
2018-11-21T10:35:53.203Z,6.75
2018-11-21T10:39:56.891Z,6.76
2018-11-21T10:44:00.473Z,6.77
2018-11-21T10:48:04.470Z,6.77
2018-11-21T10:52:08.125Z,6.77
2018-11-21T10:56:11.759Z,6.81
2018-11-21T11:00:34.416Z,6.82
2018-11-21T11:04:59.652Z,6.84
2018-11-21T11:09:24.863Z,6.82
2018-11-21T11:13:46.422Z,6.83
2018-11-21T11:18:07.642Z,6.81
2018-11-21T11:22:28.710Z,6.83
2018-11-21T11:26:49.762Z,6.82
2018-11-21T11:31:27.307Z,6.84
2018-11-21T11:36:05.172Z,6.86
2018-11-21T11:40:31.694Z,6.87
2018-11-21T11:45:03.077Z,6.89
2018-11-21T11:49:24.308Z,6.94
2018-11-21T11:53:45.319Z,6.97
2018-11-21T11:58:19.813Z,7.04
2018-11-21T12:02:34.743Z,7.03
2018-11-21T12:06:56.057Z,7.07
2018-11-21T12:11:17.075Z,7.11
2018-11-21T12:15:31.468Z,7.13
2018-11-21T12:19:56.890Z,7.14
2018-11-21T12:24:18.200Z,7.20
2018-11-21T12:28:39.467Z,7.22
2018-11-21T12:33:20.450Z,7.26
2018-11-21T12:37:41.718Z,7.25
2018-11-21T12:42:06.879Z,7.29
2018-11-21T12:46:41.622Z,7.35
2018-11-21T12:51:22.651Z,7.40
2018-11-21T12:55:43.705Z,7.39
2018-11-21T13:00:21.452Z,7.37
2018-11-21T13:04:46.659Z,7.30
2018-11-21T13:09:08.679Z,7.32
2018-11-21T13:13:30.192Z,7.32
2018-11-21T13:17:51.458Z,7.31
2018-11-21T13:22:20.233Z,7.29
2018-11-21T13:26:42.900Z,7.24
2018-11-21T13:31:23.530Z,7.24
2018-11-21T13:35:55.197Z,7.25
2018-11-21T13:40:20.542Z,7.26
2018-11-21T13:44:52.449Z,7.24
2018-11-21T13:49:13.926Z,7.19
2018-11-21T13:53:42.397Z,7.19
2018-11-21T13:57:46.284Z,7.13
2018-11-21T14:01:50.383Z,7.12
2018-11-21T14:05:54.039Z,7.12
2018-11-21T14:09:57.698Z,7.15
2018-11-21T14:14:01.554Z,7.14
2018-11-21T14:18:04.942Z,7.18
2018-11-21T14:22:08.565Z,7.18
2018-11-21T14:26:12.316Z,7.18
2018-11-21T14:30:17.001Z,7.18
2018-11-21T14:34:20.684Z,7.19
2018-11-21T14:38:24.352Z,7.20
2018-11-21T14:42:27.992Z,7.17
2018-11-21T14:46:31.653Z,7.14
2018-11-21T14:50:39.183Z,7.13
2018-11-21T14:54:39.834Z,7.12
2018-11-21T14:58:43.572Z,7.09
2018-11-21T15:02:47.240Z,7.05
2018-11-21T15:06:50.860Z,7.04
2018-11-21T15:10:54.634Z,7.03
2018-11-21T15:14:58.199Z,7.05
2018-11-21T15:19:01.887Z,7.05
2018-11-21T15:23:06.234Z,7.08
2018-11-21T15:27:10.163Z,7.06
2018-11-21T15:31:13.823Z,7.11
2018-11-21T15:35:18.098Z,7.18
2018-11-21T15:39:21.819Z,7.18
2018-11-21T15:43:31.617Z,7.17
2018-11-21T15:47:35.288Z,7.14
2018-11-21T15:51:39.928Z,7.09
2018-11-21T15:55:43.734Z,7.06
2018-11-21T15:59:47.370Z,7.02
2018-11-21T16:03:51.019Z,7.04
2018-11-21T16:07:54.632Z,7.06
2018-11-21T16:11:58.300Z,7.07
2018-11-21T16:16:02.429Z,7.13
2018-11-21T16:20:07.262Z,7.21
2018-11-21T16:24:11.011Z,7.28
2018-11-21T16:28:15.252Z,7.31
2018-11-21T16:32:18.836Z,7.32
2018-11-21T16:36:27.114Z,7.38
2018-11-21T16:40:27.710Z,7.40
2018-11-21T16:44:31.334Z,7.40
2018-11-21T16:48:34.961Z,7.39
2018-11-21T16:52:38.579Z,7.37
2018-11-21T16:56:42.228Z,7.32
2018-11-21T17:00:45.832Z,7.28
2018-11-21T17:04:49.481Z,7.26
2018-11-21T17:08:53.125Z,7.21
2018-11-21T17:12:56.782Z,7.14
2018-11-21T17:17:00.422Z,7.10
2018-11-21T17:21:04.070Z,7.06
2018-11-21T17:25:10.532Z,7.05
2018-11-21T17:29:14.190Z,7.05
2018-11-21T17:33:18.138Z,7.01
2018-11-21T17:37:21.737Z,6.92
2018-11-21T17:41:25.501Z,6.84
2018-11-21T17:45:29.366Z,6.86
2018-11-21T17:49:33.226Z,6.93
2018-11-21T17:53:46.678Z,6.99
2018-11-21T17:57:50.463Z,6.95
2018-11-21T18:01:54.391Z,6.98
2018-11-21T18:05:58.145Z,6.98
2018-11-21T18:10:01.938Z,7.01
2018-11-21T18:14:06.037Z,6.98
2018-11-21T18:18:09.629Z,6.95
2018-11-21T18:22:13.326Z,6.97
2018-11-21T18:26:18.478Z,7.02
2018-11-21T18:30:23.959Z,7.06
2018-11-21T18:34:27.544Z,7.07
2018-11-21T18:38:33.652Z,7.06
2018-11-21T18:42:37.321Z,7.04
2018-11-21T18:46:40.943Z,7.02
2018-11-21T18:50:44.630Z,7.04
2018-11-21T18:54:48.325Z,7.08
2018-11-21T18:59:19.343Z,7.09
2018-11-21T19:03:22.980Z,7.10
2018-11-21T19:07:26.660Z,7.11
2018-11-21T19:11:30.925Z,7.12
2018-11-21T19:15:34.540Z,7.14
2018-11-21T19:19:38.185Z,7.18
2018-11-21T19:23:41.987Z,7.09
2018-11-21T19:27:45.701Z,7.10
2018-11-21T19:31:49.513Z,7.13
2018-11-21T19:35:53.390Z,7.16
2018-11-21T19:39:57.178Z,7.13
2018-11-21T19:44:00.886Z,7.05
2018-11-21T19:48:04.937Z,6.93
2018-11-21T19:52:08.725Z,6.80
2018-11-21T19:56:12.329Z,6.75
2018-11-21T20:00:19.702Z,6.64
2018-11-21T20:04:23.452Z,6.56
2018-11-21T20:08:27.155Z,6.57
2018-11-21T20:12:30.935Z,6.53
2018-11-21T20:16:34.648Z,6.49
2018-11-21T20:20:38.504Z,6.46
2018-11-21T20:24:42.834Z,6.49
2018-11-21T20:28:46.442Z,6.53
2018-11-21T20:32:50.125Z,6.54
2018-11-21T20:36:53.820Z,6.59
2018-11-21T20:40:57.562Z,6.62
2018-11-21T20:45:01.267Z,6.63
2018-11-21T20:49:07.849Z,6.62
2018-11-21T20:53:08.822Z,6.56
2018-11-21T20:57:12.577Z,6.52
2018-11-21T21:01:16.299Z,6.50
2018-11-21T21:05:21.489Z,6.48
2018-11-21T21:09:25.170Z,6.45
2018-11-21T21:13:28.944Z,6.40
2018-11-21T21:17:32.505Z,6.39
2018-11-21T21:21:36.280Z,6.38
2018-11-21T21:25:39.936Z,6.35
2018-11-21T21:29:46.410Z,6.30
2018-11-21T21:33:50.232Z,6.26
2018-11-21T21:37:53.882Z,6.26
2018-11-21T21:41:57.513Z,6.26
2018-11-21T21:46:02.100Z,6.24
2018-11-21T21:50:07.482Z,6.20
2018-11-21T21:54:11.114Z,6.16
2018-11-21T21:58:14.888Z,6.11
2018-11-21T22:02:18.550Z,6.07
2018-11-21T22:06:22.284Z,6.00
2018-11-21T22:10:26.009Z,5.94
2018-11-21T22:14:29.650Z,5.87
2018-11-21T22:18:33.313Z,5.77
2018-11-21T22:22:36.950Z,5.71
2018-11-21T22:26:40.534Z,5.68
2018-11-21T22:30:44.251Z,5.69
2018-11-21T22:34:47.942Z,5.67
2018-11-21T22:38:51.632Z,5.60
2018-11-21T22:42:55.307Z,5.54
2018-11-21T22:46:59.018Z,5.52
2018-11-21T22:51:02.746Z,5.52
2018-11-21T22:55:07.099Z,5.55
2018-11-21T22:59:11.129Z,5.49
2018-11-21T23:03:15.849Z,5.47
2018-11-21T23:07:19.588Z,5.39
2018-11-21T23:11:23.262Z,5.34
2018-11-21T23:15:26.928Z,5.28
2018-11-21T23:19:30.609Z,5.25
2018-11-21T23:23:34.294Z,5.21
2018-11-21T23:27:38.312Z,5.26
2018-11-21T23:31:42.110Z,5.20
2018-11-21T23:35:45.782Z,5.17
2018-11-21T23:39:49.356Z,5.15
2018-11-21T23:43:53.030Z,5.15
2018-11-21T23:47:56.796Z,5.18
2018-11-21T23:52:00.475Z,5.20
2018-11-21T23:56:04.106Z,5.20
